Time;durP1;ratioP1;P1;durP2;ratioP2;P2;SDS_P1;SDS_P2;PMS_P1;PMS_P2;Temp;Humidity;BMP_temperature;BMP_pressure;BME280_temperature;BME280_humidity;BME280_pressure;Samples;Min_cycle;Max_cycle;Signal;HPM_P1;HPM_P2
2021/12/13 00:02:09;;;;;;;;;;;0.60;75.50;;;;;;5009828;28;19975;-80
2021/12/13 00:04:40;;;;;;;;;;;0.50;74.60;;;;;;5029915;28;19920;-82
2021/12/13 00:07:20;;;;;;;;;;;0.50;75.40;;;;;;5036590;28;19999;-80
2021/12/13 00:09:49;;;;;;;;;;;0.50;75.30;;;;;;5037038;28;19934;-80
2021/12/13 00:12:23;;;;;;;;;;;0.20;76.30;;;;;;5039006;28;19921;-82
2021/12/13 00:14:52;;;;;;;;;;;0.20;76.20;;;;;;5030572;28;19928;-81
2021/12/13 00:17:21;;;;;;;;;;;0.20;76.30;;;;;;5035413;28;19932;-82
2021/12/13 00:19:51;;;;;;;;;;;0.20;75.90;;;;;;5032063;28;21826;-81
2021/12/13 00:22:20;;;;;;;;;;;0.20;75.90;;;;;;5039019;28;20292;-81
2021/12/13 00:24:49;;;;;;;;;;;0.20;76.20;;;;;;5028666;28;19996;-80
2021/12/13 00:27:18;;;;;;;;;;;0.20;76.50;;;;;;5029164;28;20336;-79
2021/12/13 00:30:04;;;;;;;;;;;0.30;76.30;;;;;;5022811;28;19931;-81
2021/12/13 00:32:41;;;;;;;;;;;0.30;75.90;;;;;;5025253;28;19950;-82
2021/12/13 00:35:13;;;;;;;;;;;0.30;76.50;;;;;;5032355;28;19921;-82
2021/12/13 00:37:42;;;;;;;;;;;0.30;77.40;;;;;;5020530;28;20385;-79
2021/12/13 00:40:14;;;;;;;;;;;0.20;77.20;;;;;;5036695;28;19921;-78
2021/12/13 00:43:00;;;;;;;;;;;0.10;77.30;;;;;;5034841;28;19921;-81
2021/12/13 00:45:29;;;;;;;;;;;0.00;78.20;;;;;;5036545;28;20392;-80
2021/12/13 00:47:58;;;;;;;;;;;-0.10;78.70;;;;;;5029782;28;19920;-81
2021/12/13 00:50:35;;;;;;;;;;;-0.10;78.60;;;;;;5035659;28;20396;-79
2021/12/13 00:53:02;;;;;;;;;;;-0.10;78.10;;;;;;5033083;28;20551;-82
2021/12/13 00:55:31;;;;;;;;;;;-0.10;78.00;;;;;;5034283;28;19928;-79
2021/12/13 00:58:11;;;;;;;;;;;-0.10;78.50;;;;;;5029572;28;19925;-78
2021/12/13 01:00:43;;;;;;;;;;;0.00;78.50;;;;;;5026077;28;20046;-79
2021/12/13 01:03:15;;;;;;;;;;;0.00;78.40;;;;;;5029513;28;20407;-80
2021/12/13 01:06:11;;;;;;;;;;;0.00;78.10;;;;;;5032226;28;19927;-81
2021/12/13 01:08:56;;;;;;;;;;;0.00;78.50;;;;;;5037873;28;20389;-80
2021/12/13 01:11:32;;;;;;;;;;;0.10;78.90;;;;;;5034829;28;19924;-80
2021/12/13 01:14:03;;;;;;;;;;;0.20;78.60;;;;;;5027873;28;20024;-81
2021/12/13 01:16:50;;;;;;;;;;;0.30;78.00;;;;;;5035240;28;20342;-80
2021/12/13 01:22:26;;;;;;;;;;;0.40;77.60;;;;;;5055632;28;19921;-78
2021/12/13 01:27:38;;;;;;;;;;;0.10;78.40;;;;;;5046514;28;20389;-81
2021/12/13 01:30:07;;;;;;;;;;;0.10;78.60;;;;;;5031211;28;19951;-80
2021/12/13 01:32:37;;;;;;;;;;;0.10;78.50;;;;;;5044347;28;19925;-79
2021/12/13 01:35:06;;;;;;;;;;;0.10;79.00;;;;;;5021592;28;19928;-81
2021/12/13 01:37:34;;;;;;;;;;;0.10;79.20;;;;;;5030055;28;19925;-80
2021/12/13 01:40:06;;;;;;;;;;;0.10;79.10;;;;;;5034479;28;20357;-81
2021/12/13 01:42:33;;;;;;;;;;;0.10;78.60;;;;;;5028457;28;19947;-78
2021/12/13 01:45:03;;;;;;;;;;;0.10;78.90;;;;;;5049350;28;19951;-82
2021/12/13 01:47:41;;;;;;;;;;;0.10;79.30;;;;;;5031588;28;19947;-82
2021/12/13 01:50:22;;;;;;;;;;;0.00;79.20;;;;;;5031894;28;19921;-78
2021/12/13 01:52:50;;;;;;;;;;;0.10;79.40;;;;;;5032812;28;19920;-81
2021/12/13 01:55:34;;;;;;;;;;;0.10;79.30;;;;;;5029345;28;20519;-79
2021/12/13 01:58:18;;;;;;;;;;;0.10;79.50;;;;;;5025024;28;20373;-79
2021/12/13 02:03:44;;;;;;;;;;;0.20;80.50;;;;;;5042012;28;20319;-80
2021/12/13 02:06:12;;;;;;;;;;;0.30;80.60;;;;;;5026866;28;20496;-79
2021/12/13 02:08:39;;;;;;;;;;;0.30;80.10;;;;;;5024897;28;19925;-79
2021/12/13 02:11:06;;;;;;;;;;;0.30;79.60;;;;;;5030810;28;19921;-81
2021/12/13 02:13:41;;;;;;;;;;;0.20;79.40;;;;;;5035329;28;19921;-80
2021/12/13 02:18:57;;;;;;;;;;;0.30;79.50;;;;;;5046126;28;19943;-78
2021/12/13 02:21:30;;;;;;;;;;;0.30;79.30;;;;;;5033700;28;19943;-80
2021/12/13 02:24:01;;;;;;;;;;;0.20;79.90;;;;;;5032601;28;20412;-82
2021/12/13 02:26:28;;;;;;;;;;;0.10;80.20;;;;;;5033150;28;19927;-80
2021/12/13 02:29:01;;;;;;;;;;;0.00;80.10;;;;;;5025643;28;19947;-78
2021/12/13 02:31:29;;;;;;;;;;;-0.10;80.10;;;;;;5035042;28;19970;-78
2021/12/13 02:33:59;;;;;;;;;;;0.00;80.20;;;;;;5028164;28;19927;-79
2021/12/13 02:36:30;;;;;;;;;;;0.00;80.00;;;;;;5024300;28;20406;-79
2021/12/13 02:38:59;;;;;;;;;;;0.00;79.90;;;;;;5027261;28;19928;-81
2021/12/13 02:41:30;;;;;;;;;;;0.00;79.70;;;;;;5032100;28;19927;-81
2021/12/13 02:44:04;;;;;;;;;;;0.00;79.60;;;;;;5028548;28;19921;-81
2021/12/13 02:46:32;;;;;;;;;;;0.10;80.50;;;;;;5032811;28;19924;-81
2021/12/13 02:49:01;;;;;;;;;;;0.10;80.50;;;;;;5025276;28;19920;-79
2021/12/13 02:51:30;;;;;;;;;;;0.10;80.40;;;;;;5032762;28;19929;-77
2021/12/13 02:54:02;;;;;;;;;;;0.10;80.50;;;;;;5033565;28;19964;-79
2021/12/13 02:56:32;;;;;;;;;;;0.20;80.30;;;;;;5036419;28;20307;-79
2021/12/13 02:59:00;;;;;;;;;;;0.20;80.30;;;;;;5029210;28;19925;-81
2021/12/13 03:01:30;;;;;;;;;;;0.20;80.10;;;;;;5050777;28;19924;-81
2021/12/13 03:04:03;;;;;;;;;;;0.20;80.30;;;;;;5035946;28;19924;-80
2021/12/13 03:06:33;;;;;;;;;;;0.30;80.00;;;;;;5052601;28;19925;-80
2021/12/13 03:09:07;;;;;;;;;;;0.30;80.10;;;;;;5028373;28;20442;-80
2021/12/13 03:11:34;;;;;;;;;;;0.30;79.80;;;;;;5039363;28;19920;-80
2021/12/13 03:14:07;;;;;;;;;;;0.40;79.00;;;;;;5052491;28;19974;-80
2021/12/13 03:16:39;;;;;;;;;;;0.50;79.00;;;;;;5033942;28;19924;-81
2021/12/13 03:19:10;;;;;;;;;;;0.50;78.80;;;;;;5034298;28;19921;-80
2021/12/13 03:21:47;;;;;;;;;;;0.50;78.30;;;;;;5031286;28;19925;-80
2021/12/13 03:24:19;;;;;;;;;;;0.60;78.20;;;;;;5035780;28;19921;-81
2021/12/13 03:26:49;;;;;;;;;;;0.60;77.70;;;;;;5022912;28;20376;-80
2021/12/13 03:29:20;;;;;;;;;;;0.60;77.60;;;;;;5031001;28;19928;-77
2021/12/13 03:31:50;;;;;;;;;;;0.50;77.60;;;;;;5034133;28;19925;-78
2021/12/13 03:34:22;;;;;;;;;;;0.60;77.50;;;;;;5037330;28;19920;-81
2021/12/13 03:36:56;;;;;;;;;;;0.60;77.30;;;;;;5033378;28;19967;-82
2021/12/13 03:39:29;;;;;;;;;;;0.60;77.30;;;;;;5034689;28;19925;-81
2021/12/13 03:41:56;;;;;;;;;;;0.60;77.10;;;;;;5051695;28;19966;-81
2021/12/13 03:44:26;;;;;;;;;;;0.50;77.00;;;;;;5024904;28;19921;-81
2021/12/13 03:46:55;;;;;;;;;;;0.50;77.00;;;;;;5035918;28;19943;-81
2021/12/13 03:49:23;;;;;;;;;;;0.50;76.90;;;;;;5027504;28;20365;-82
2021/12/13 03:51:53;;;;;;;;;;;0.50;76.80;;;;;;5035578;28;19929;-81
2021/12/13 03:54:20;;;;;;;;;;;0.50;77.20;;;;;;5032190;28;19929;-77
2021/12/13 03:56:48;;;;;;;;;;;0.40;77.10;;;;;;5037966;28;19921;-80
2021/12/13 03:59:18;;;;;;;;;;;0.40;77.20;;;;;;5035354;28;19920;-81
2021/12/13 04:01:51;;;;;;;;;;;0.30;77.20;;;;;;5026511;28;19987;-80
2021/12/13 04:04:23;;;;;;;;;;;0.30;77.70;;;;;;5034755;28;19924;-80
2021/12/13 04:06:53;;;;;;;;;;;0.30;77.80;;;;;;5029536;28;19979;-79
2021/12/13 04:09:26;;;;;;;;;;;0.20;77.70;;;;;;5029070;28;20404;-79
2021/12/13 04:11:55;;;;;;;;;;;0.10;77.90;;;;;;5039935;28;20297;-78
2021/12/13 04:14:27;;;;;;;;;;;0.00;78.60;;;;;;5035095;28;19925;-81
2021/12/13 04:17:07;;;;;;;;;;;-0.10;78.60;;;;;;5040928;28;19924;-80
2021/12/13 04:19:54;;;;;;;;;;;-0.10;78.60;;;;;;5032868;28;20551;-79
2021/12/13 04:22:25;;;;;;;;;;;-0.20;78.80;;;;;;5029044;28;19944;-80
2021/12/13 04:24:54;;;;;;;;;;;-0.10;79.30;;;;;;5040308;28;19920;-77
2021/12/13 04:27:25;;;;;;;;;;;-0.10;79.60;;;;;;5035274;28;19975;-79
2021/12/13 04:29:54;;;;;;;;;;;-0.20;79.70;;;;;;5028876;28;19920;-80
2021/12/13 04:32:23;;;;;;;;;;;-0.20;80.10;;;;;;5031797;28;19971;-80
2021/12/13 04:34:52;;;;;;;;;;;-0.30;80.50;;;;;;5033284;28;19971;-81
2021/12/13 04:37:20;;;;;;;;;;;-0.40;80.20;;;;;;5034075;28;20024;-79
2021/12/13 04:39:50;;;;;;;;;;;-0.40;81.40;;;;;;5034104;28;19924;-79
2021/12/13 04:42:19;;;;;;;;;;;-0.50;81.20;;;;;;5037763;28;19921;-80
2021/12/13 04:44:46;;;;;;;;;;;-0.50;80.60;;;;;;5035704;28;19925;-79
2021/12/13 04:47:14;;;;;;;;;;;-0.50;80.90;;;;;;5036890;28;19931;-79
2021/12/13 04:49:46;;;;;;;;;;;-0.50;80.70;;;;;;5032804;28;19925;-80
2021/12/13 04:52:14;;;;;;;;;;;-0.40;81.30;;;;;;5034927;28;19924;-80
2021/12/13 04:54:43;;;;;;;;;;;-0.40;81.20;;;;;;5035864;28;19975;-80
2021/12/13 04:57:10;;;;;;;;;;;-0.50;81.70;;;;;;5035553;28;19921;-81
2021/12/13 04:59:37;;;;;;;;;;;-0.50;81.40;;;;;;5034991;28;19927;-78
2021/12/13 05:02:06;;;;;;;;;;;-0.50;81.10;;;;;;5030033;28;19924;-82
2021/12/13 05:04:33;;;;;;;;;;;-0.50;80.90;;;;;;5029612;28;19921;-79
2021/12/13 05:07:03;;;;;;;;;;;-0.50;80.70;;;;;;5024860;28;19921;-81
2021/12/13 05:09:30;;;;;;;;;;;-0.50;80.80;;;;;;5019193;28;19921;-80
2021/12/13 05:12:10;;;;;;;;;;;-0.50;81.10;;;;;;5037127;28;19921;-78
2021/12/13 05:14:40;;;;;;;;;;;-0.40;81.40;;;;;;5026956;28;20309;-80
2021/12/13 05:17:21;;;;;;;;;;;-0.40;81.70;;;;;;5035214;28;20426;-79
2021/12/13 05:19:57;;;;;;;;;;;-0.50;81.20;;;;;;5042778;28;20408;-80
2021/12/13 05:22:24;;;;;;;;;;;-0.50;80.90;;;;;;5033309;28;19925;-80
2021/12/13 05:24:57;;;;;;;;;;;-0.50;81.00;;;;;;5030860;28;19925;-80
2021/12/13 05:27:34;;;;;;;;;;;-0.50;80.70;;;;;;5033413;28;19920;-81
2021/12/13 05:30:04;;;;;;;;;;;-0.50;81.20;;;;;;5024209;28;19950;-78
2021/12/13 05:32:34;;;;;;;;;;;-0.60;81.20;;;;;;5053959;28;19921;-81
2021/12/13 05:35:08;;;;;;;;;;;-0.50;82.30;;;;;;5033170;28;19920;-78
2021/12/13 05:37:39;;;;;;;;;;;-0.70;81.60;;;;;;5015118;28;19925;-81
2021/12/13 05:40:08;;;;;;;;;;;-0.70;82.70;;;;;;5036325;28;19970;-79
2021/12/13 05:42:48;;;;;;;;;;;-0.70;81.50;;;;;;5028793;28;19921;-80
2021/12/13 05:45:28;;;;;;;;;;;-0.70;81.70;;;;;;5041248;28;19936;-80
2021/12/13 05:47:57;;;;;;;;;;;-0.70;82.70;;;;;;5031529;28;19925;-81
2021/12/13 05:50:30;;;;;;;;;;;-0.70;81.80;;;;;;5038801;28;19928;-81
2021/12/13 05:53:03;;;;;;;;;;;-0.70;82.10;;;;;;5025192;28;19929;-80
2021/12/13 05:55:30;;;;;;;;;;;-0.70;81.70;;;;;;5036683;28;19929;-81
2021/12/13 05:57:57;;;;;;;;;;;-0.70;82.50;;;;;;5030885;28;19925;-80
2021/12/13 06:00:27;;;;;;;;;;;-0.70;82.00;;;;;;5021439;28;19928;-79
2021/12/13 06:03:00;;;;;;;;;;;-0.70;81.70;;;;;;5032068;28;19925;-80
2021/12/13 06:05:30;;;;;;;;;;;-0.90;82.40;;;;;;5045779;28;19960;-81
2021/12/13 06:08:20;;;;;;;;;;;-0.90;82.60;;;;;;5029469;28;19929;-80
2021/12/13 06:10:47;;;;;;;;;;;-0.90;82.20;;;;;;5026778;28;19971;-79
2021/12/13 06:13:22;;;;;;;;;;;-1.00;82.00;;;;;;5019797;28;19924;-80
2021/12/13 06:15:50;;;;;;;;;;;-1.00;81.90;;;;;;5022886;28;20443;-79
2021/12/13 06:18:19;;;;;;;;;;;-1.00;81.90;;;;;;5036512;28;19921;-80
2021/12/13 06:20:55;;;;;;;;;;;-1.00;81.90;;;;;;5040414;28;19978;-80
2021/12/13 06:23:23;;;;;;;;;;;-1.00;82.40;;;;;;5029268;28;20293;-80
2021/12/13 06:26:10;;;;;;;;;;;-1.00;82.90;;;;;;5030193;28;19971;-80
2021/12/13 06:28:39;;;;;;;;;;;-1.00;82.40;;;;;;5035936;28;20408;-79
2021/12/13 06:31:11;;;;;;;;;;;-1.00;83.40;;;;;;5034852;28;19986;-80
2021/12/13 06:33:46;;;;;;;;;;;-1.00;84.20;;;;;;5055632;28;19925;-79
2021/12/13 06:36:14;;;;;;;;;;;-1.00;83.90;;;;;;5037377;28;19924;-80
2021/12/13 06:38:43;;;;;;;;;;;-1.00;83.60;;;;;;5031190;28;19920;-80
2021/12/13 06:41:19;;;;;;;;;;;-0.90;83.70;;;;;;5037590;28;19928;-79
2021/12/13 06:43:53;;;;;;;;;;;-1.00;83.40;;;;;;5032258;28;19971;-81
2021/12/13 06:46:23;;;;;;;;;;;-1.00;83.60;;;;;;5035726;28;19967;-81
2021/12/13 06:48:54;;;;;;;;;;;-1.00;83.40;;;;;;5035841;28;19932;-79
2021/12/13 06:51:35;;;;;;;;;;;-1.00;84.00;;;;;;5032784;28;19920;-79
2021/12/13 06:54:04;;;;;;;;;;;-1.00;84.20;;;;;;5033230;28;19931;-80
2021/12/13 06:56:33;;;;;;;;;;;-1.00;83.90;;;;;;5034506;28;19932;-79
2021/12/13 06:59:02;;;;;;;;;;;-1.00;83.70;;;;;;5034390;28;20410;-80
2021/12/13 07:01:30;;;;;;;;;;;-1.00;83.60;;;;;;5029700;28;19928;-80
2021/12/13 07:04:08;;;;;;;;;;;-1.00;83.40;;;;;;5030617;28;20025;-80
2021/12/13 07:06:35;;;;;;;;;;;-1.00;83.30;;;;;;5034075;28;19925;-80
2021/12/13 07:09:11;;;;;;;;;;;-1.00;84.20;;;;;;5032043;28;19979;-79
2021/12/13 07:11:43;;;;;;;;;;;-1.10;84.10;;;;;;5027509;28;20455;-79
2021/12/13 07:14:13;;;;;;;;;;;-1.10;84.00;;;;;;5029701;28;19921;-79
2021/12/13 07:16:42;;;;;;;;;;;-1.10;84.30;;;;;;5040568;28;20397;-80
2021/12/13 07:19:18;;;;;;;;;;;-1.00;84.70;;;;;;5033118;28;19924;-80
2021/12/13 07:21:48;;;;;;;;;;;-1.00;85.10;;;;;;5037059;28;20022;-79
2021/12/13 07:24:25;;;;;;;;;;;-1.00;85.40;;;;;;5036328;28;20002;-80
2021/12/13 07:26:55;;;;;;;;;;;-1.00;85.00;;;;;;5032932;28;20392;-79
2021/12/13 07:29:22;;;;;;;;;;;-1.00;85.10;;;;;;5030331;28;19984;-79
2021/12/13 07:32:04;;;;;;;;;;;-1.00;84.80;;;;;;5032300;28;20556;-80
2021/12/13 07:34:31;;;;;;;;;;;-1.00;84.50;;;;;;5053849;28;19982;-79
2021/12/13 07:36:59;;;;;;;;;;;-0.90;84.40;;;;;;5032251;28;19994;-79
2021/12/13 07:39:29;;;;;;;;;;;-0.20;84.30;;;;;;5032836;28;20306;-80
2021/12/13 07:41:58;;;;;;;;;;;0.70;82.40;;;;;;5030441;28;19921;-79
2021/12/13 07:44:25;;;;;;;;;;;1.70;78.00;;;;;;5034610;28;19925;-79
2021/12/13 07:47:00;;;;;;;;;;;2.50;74.40;;;;;;5031212;28;19951;-79
2021/12/13 07:49:31;;;;;;;;;;;3.20;71.20;;;;;;5032076;28;20371;-79
2021/12/13 07:52:00;;;;;;;;;;;3.60;67.50;;;;;;5042497;28;19921;-80
2021/12/13 07:54:27;;;;;;;;;;;3.80;67.20;;;;;;5032971;28;19956;-79
2021/12/13 07:56:57;;;;;;;;;;;4.00;66.10;;;;;;5046744;28;19928;-79
2021/12/13 07:59:42;;;;;;;;;;;4.00;65.40;;;;;;5031407;28;19936;-80
2021/12/13 08:02:25;;;;;;;;;;;4.00;66.00;;;;;;5022813;28;20004;-79
2021/12/13 08:04:56;;;;;;;;;;;3.70;66.60;;;;;;5047889;28;19928;-80
2021/12/13 08:07:40;;;;;;;;;;;3.50;67.00;;;;;;5025865;28;19920;-80
2021/12/13 08:10:13;;;;;;;;;;;3.30;68.20;;;;;;5030905;28;19925;-79
2021/12/13 08:12:42;;;;;;;;;;;3.20;68.80;;;;;;5052583;28;19925;-80
2021/12/13 08:15:08;;;;;;;;;;;3.20;69.50;;;;;;5026920;28;19921;-79
2021/12/13 08:17:44;;;;;;;;;;;3.20;69.80;;;;;;5021763;28;20447;-81
2021/12/13 08:20:17;;;;;;;;;;;3.20;70.20;;;;;;5030989;28;20219;-79
2021/12/13 08:22:45;;;;;;;;;;;3.20;70.80;;;;;;5029841;28;19920;-79
2021/12/13 08:25:19;;;;;;;;;;;3.10;71.20;;;;;;5052335;28;19970;-79
2021/12/13 08:27:51;;;;;;;;;;;2.90;72.50;;;;;;5032750;28;19924;-81
2021/12/13 08:30:20;;;;;;;;;;;3.00;72.60;;;;;;5032724;28;19936;-78
2021/12/13 08:33:20;;;;;;;;;;;3.30;71.80;;;;;;5027024;28;19928;-80
2021/12/13 08:35:52;;;;;;;;;;;3.50;71.00;;;;;;4989531;28;19928;-80
2021/12/13 08:38:34;;;;;;;;;;;3.70;71.00;;;;;;5019962;28;20336;-80
2021/12/13 08:41:15;;;;;;;;;;;3.90;69.30;;;;;;5030126;28;20638;-80
2021/12/13 08:43:54;;;;;;;;;;;4.00;68.40;;;;;;5027970;28;19932;-80
2021/12/13 08:46:28;;;;;;;;;;;4.10;68.40;;;;;;5034874;28;19924;-79
2021/12/13 08:48:56;;;;;;;;;;;4.20;68.50;;;;;;5026316;28;19921;-80
2021/12/13 08:51:24;;;;;;;;;;;4.30;68.80;;;;;;5049410;28;19986;-80
2021/12/13 08:53:59;;;;;;;;;;;4.40;68.20;;;;;;5051793;28;19924;-79
2021/12/13 08:56:27;;;;;;;;;;;4.50;67.90;;;;;;5030366;28;20019;-79
2021/12/13 08:58:59;;;;;;;;;;;4.60;67.70;;;;;;5036065;28;20004;-79
2021/12/13 09:01:28;;;;;;;;;;;4.70;67.60;;;;;;5028625;28;19920;-80
2021/12/13 09:03:55;;;;;;;;;;;4.80;67.50;;;;;;5028440;28;19959;-80
2021/12/13 09:27:23;;;;;;;;;;;5.80;65.60;;;;;;6147762;22;2127354;-80
2021/12/13 09:30:10;;;;;;;;;;;5.90;65.40;;;;;;6107441;23;19932;-80
2021/12/13 09:32:42;;;;;;;;;;;6.00;65.10;;;;;;6103396;23;19929;-81
2021/12/13 09:35:24;;;;;;;;;;;6.20;64.90;;;;;;6156225;23;19921;-81
2021/12/13 09:37:54;;;;;;;;;;;6.30;64.40;;;;;;6133288;23;19921;-79
2021/12/13 09:40:47;;;;;;;;;;;6.40;64.40;;;;;;6135460;23;19924;-79
2021/12/13 09:43:14;;;;;;;;;;;6.50;64.00;;;;;;6127147;23;19959;-82
2021/12/13 09:45:46;;;;;;;;;;;6.60;63.50;;;;;;6159439;23;20338;-79
2021/12/13 09:48:18;;;;;;;;;;;6.70;62.70;;;;;;6157218;23;19973;-80
2021/12/13 09:50:46;;;;;;;;;;;6.70;62.80;;;;;;6157378;23;20302;-80
2021/12/13 09:53:13;;;;;;;;;;;6.80;60.70;;;;;;6155407;23;19928;-79
2021/12/13 09:55:42;;;;;;;;;;;6.90;60.00;;;;;;6133299;23;19921;-81
2021/12/13 09:58:14;;;;;;;;;;;7.10;59.60;;;;;;6157765;23;20390;-78
2021/12/13 10:00:47;;;;;;;;;;;7.20;58.30;;;;;;6157586;23;19925;-81
2021/12/13 10:03:43;;;;;;;;;;;7.40;57.90;;;;;;6131479;23;19940;-80
2021/12/13 10:06:11;;;;;;;;;;;7.50;58.10;;;;;;6073021;23;20254;-81
2021/12/13 10:08:44;;;;;;;;;;;7.70;56.60;;;;;;6106639;23;19972;-79
2021/12/13 10:11:17;;;;;;;;;;;7.80;56.50;;;;;;6103033;23;19929;-79
2021/12/13 10:13:45;;;;;;;;;;;7.90;56.20;;;;;;6104694;23;19976;-80
2021/12/13 10:16:16;;;;;;;;;;;8.00;56.10;;;;;;6102351;23;19929;-81
2021/12/13 10:18:43;;;;;;;;;;;8.10;56.70;;;;;;6121746;23;19922;-80
2021/12/13 10:21:16;;;;;;;;;;;8.30;56.20;;;;;;6095349;23;19921;-78
2021/12/13 10:23:46;;;;;;;;;;;8.40;56.00;;;;;;6099295;23;19972;-80
2021/12/13 10:26:25;;;;;;;;;;;8.60;56.10;;;;;;6100262;23;20452;-81
2021/12/13 10:28:56;;;;;;;;;;;8.70;55.40;;;;;;6099576;23;19979;-79
2021/12/13 10:31:23;;;;;;;;;;;8.80;54.80;;;;;;6096655;23;19925;-81
2021/12/13 10:33:50;;;;;;;;;;;9.00;53.10;;;;;;6103780;23;20406;-80
2021/12/13 10:36:17;;;;;;;;;;;9.10;51.10;;;;;;6071957;23;20303;-79
2021/12/13 10:38:52;;;;;;;;;;;9.20;49.20;;;;;;6098347;23;19921;-78
2021/12/13 10:41:29;;;;;;;;;;;9.40;50.30;;;;;;6121951;23;19921;-80
2021/12/13 10:43:57;;;;;;;;;;;9.50;49.60;;;;;;6097489;23;19921;-81
2021/12/13 10:46:27;;;;;;;;;;;9.60;48.10;;;;;;6096016;23;19929;-79
2021/12/13 10:48:59;;;;;;;;;;;9.70;48.40;;;;;;6097749;23;19921;-81
2021/12/13 10:51:31;;;;;;;;;;;9.80;48.70;;;;;;6097287;23;19932;-81
2021/12/13 10:54:00;;;;;;;;;;;9.90;47.10;;;;;;6102605;23;19932;-79
2021/12/13 10:56:31;;;;;;;;;;;9.90;46.60;;;;;;6095161;23;19984;-79
2021/12/13 10:59:02;;;;;;;;;;;10.00;47.10;;;;;;6098578;23;20262;-81
2021/12/13 11:01:34;;;;;;;;;;;10.10;46.80;;;;;;6121722;23;20521;-78
2021/12/13 11:04:06;;;;;;;;;;;10.10;47.20;;;;;;6098008;23;19949;-79
2021/12/13 11:06:35;;;;;;;;;;;10.00;47.50;;;;;;6100693;23;19932;-80
2021/12/13 11:09:07;;;;;;;;;;;10.00;48.20;;;;;;6098258;23;20402;-81
2021/12/13 11:11:37;;;;;;;;;;;10.20;48.40;;;;;;6097868;23;19921;-80
2021/12/13 11:14:05;;;;;;;;;;;10.30;47.40;;;;;;6096404;23;19921;-82
2021/12/13 11:16:39;;;;;;;;;;;10.40;46.90;;;;;;6095555;23;19925;-78
2021/12/13 11:19:07;;;;;;;;;;;10.50;46.60;;;;;;6101930;23;19921;-81
2021/12/13 11:21:36;;;;;;;;;;;10.70;47.30;;;;;;6094508;23;20378;-79
2021/12/13 11:24:07;;;;;;;;;;;10.80;46.40;;;;;;6123405;23;19921;-79
2021/12/13 11:26:36;;;;;;;;;;;11.00;45.70;;;;;;6096190;23;19996;-78
2021/12/13 11:29:04;;;;;;;;;;;11.20;45.90;;;;;;6098774;23;19928;-78
2021/12/13 11:31:30;;;;;;;;;;;11.20;44.90;;;;;;6073828;23;20291;-81
2021/12/13 11:34:04;;;;;;;;;;;11.20;46.80;;;;;;6096327;23;19980;-81
2021/12/13 11:36:49;;;;;;;;;;;11.40;44.70;;;;;;6098668;23;19930;-81
2021/12/13 11:39:28;;;;;;;;;;;11.50;45.00;;;;;;6096436;23;19921;-81
2021/12/13 11:42:10;;;;;;;;;;;11.70;44.60;;;;;;6095917;23;19932;-80
2021/12/13 11:44:56;;;;;;;;;;;11.90;45.10;;;;;;6072006;23;19932;-79
2021/12/13 11:47:29;;;;;;;;;;;12.00;45.20;;;;;;6096550;23;19932;-81
2021/12/13 11:49:59;;;;;;;;;;;12.10;44.80;;;;;;6097874;23;19925;-81
2021/12/13 11:52:32;;;;;;;;;;;12.20;44.90;;;;;;6099275;23;19921;-79
2021/12/13 11:55:17;;;;;;;;;;;12.20;44.80;;;;;;6088727;23;19921;-81
2021/12/13 11:58:03;;;;;;;;;;;12.30;45.20;;;;;;6095483;23;19921;-79
2021/12/13 12:00:43;;;;;;;;;;;12.40;44.40;;;;;;6096934;23;19925;-79
2021/12/13 12:03:22;;;;;;;;;;;12.40;43.90;;;;;;6097260;23;19969;-79
2021/12/13 12:06:08;;;;;;;;;;;12.50;43.10;;;;;;6097098;23;19929;-79
2021/12/13 12:08:53;;;;;;;;;;;12.50;42.60;;;;;;6095980;23;19929;-79
2021/12/13 12:11:47;;;;;;;;;;;12.50;43.40;;;;;;6094991;23;19932;-78
2021/12/13 12:14:23;;;;;;;;;;;12.60;44.30;;;;;;6120146;23;19932;-80
2021/12/13 12:16:52;;;;;;;;;;;12.60;43.40;;;;;;6095738;23;19929;-80
2021/12/13 12:19:25;;;;;;;;;;;12.40;43.90;;;;;;6099052;23;19925;-81
2021/12/13 12:21:55;;;;;;;;;;;12.60;43.40;;;;;;6094799;23;20339;-79
2021/12/13 12:24:30;;;;;;;;;;;12.70;43.10;;;;;;6097048;23;19985;-82
2021/12/13 12:27:02;;;;;;;;;;;13.00;43.90;;;;;;6096815;23;20343;-79
2021/12/13 12:29:34;;;;;;;;;;;13.10;43.40;;;;;;6097120;23;19921;-82
2021/12/13 12:32:13;;;;;;;;;;;13.10;42.00;;;;;;6095637;23;19928;-81
2021/12/13 12:34:53;;;;;;;;;;;13.10;42.20;;;;;;6096089;23;19965;-80
2021/12/13 12:37:37;;;;;;;;;;;13.00;42.30;;;;;;6119013;23;20468;-81
2021/12/13 12:40:07;;;;;;;;;;;13.00;41.70;;;;;;6095584;23;20378;-79
2021/12/13 12:42:39;;;;;;;;;;;13.10;41.10;;;;;;6096472;23;19972;-81
2021/12/13 12:45:11;;;;;;;;;;;13.20;41.60;;;;;;6096349;23;19988;-81
2021/12/13 12:47:47;;;;;;;;;;;13.20;40.60;;;;;;6099506;23;19921;-81
2021/12/13 12:50:29;;;;;;;;;;;13.20;40.00;;;;;;6097423;23;20259;-81
2021/12/13 12:53:01;;;;;;;;;;;13.20;40.00;;;;;;6097892;23;19921;-80
2021/12/13 12:55:30;;;;;;;;;;;13.30;40.80;;;;;;6073432;23;19981;-82
2021/12/13 12:57:57;;;;;;;;;;;13.40;40.10;;;;;;6097687;23;20027;-81
2021/12/13 13:00:29;;;;;;;;;;;13.30;40.20;;;;;;6102697;23;19922;-81
2021/12/13 13:02:56;;;;;;;;;;;13.30;40.20;;;;;;6095033;23;20262;-82
2021/12/13 13:05:26;;;;;;;;;;;13.40;40.90;;;;;;6096967;23;20439;-81
2021/12/13 13:07:53;;;;;;;;;;;13.60;41.20;;;;;;6105990;23;20429;-81
2021/12/13 13:10:26;;;;;;;;;;;13.70;41.30;;;;;;6093604;23;19976;-82
2021/12/13 13:13:01;;;;;;;;;;;13.70;40.10;;;;;;6098129;23;19921;-81
2021/12/13 13:15:30;;;;;;;;;;;13.70;39.90;;;;;;6122022;23;19929;-79
2021/12/13 13:18:03;;;;;;;;;;;13.80;39.40;;;;;;6099786;23;19921;-81
2021/12/13 13:20:33;;;;;;;;;;;13.80;39.00;;;;;;6100805;23;19931;-81
2021/12/13 13:23:00;;;;;;;;;;;13.70;38.70;;;;;;6097989;23;19929;-80
2021/12/13 13:25:33;;;;;;;;;;;13.70;39.40;;;;;;6095510;23;19992;-81
2021/12/13 13:28:01;;;;;;;;;;;13.60;39.40;;;;;;6096459;23;19929;-79
2021/12/13 13:30:37;;;;;;;;;;;13.60;39.80;;;;;;6097031;23;19925;-82
2021/12/13 13:33:05;;;;;;;;;;;13.60;38.50;;;;;;6098411;23;19928;-81
2021/12/13 13:35:32;;;;;;;;;;;13.50;38.90;;;;;;6099597;23;19913;-82
2021/12/13 13:38:02;;;;;;;;;;;13.50;39.70;;;;;;6110590;23;19949;-81
2021/12/13 13:40:30;;;;;;;;;;;13.60;40.20;;;;;;6094887;23;19925;-80
2021/12/13 13:42:59;;;;;;;;;;;13.70;40.40;;;;;;6099835;23;19922;-79
2021/12/13 13:45:31;;;;;;;;;;;13.80;40.30;;;;;;6100513;23;19926;-82
2021/12/13 13:48:00;;;;;;;;;;;13.60;39.10;;;;;;6103267;23;20296;-80
2021/12/13 13:50:41;;;;;;;;;;;13.60;39.40;;;;;;6099045;23;19932;-81
2021/12/13 13:53:10;;;;;;;;;;;13.60;38.60;;;;;;6104631;23;19940;-81
2021/12/13 13:55:56;;;;;;;;;;;13.20;39.10;;;;;;6098102;23;20402;-79
2021/12/13 13:58:24;;;;;;;;;;;13.20;39.70;;;;;;6100695;23;19949;-81
2021/12/13 14:00:57;;;;;;;;;;;13.20;39.60;;;;;;6100809;23;19972;-82
2021/12/13 14:03:26;;;;;;;;;;;13.20;40.30;;;;;;6127223;23;19925;-79
2021/12/13 14:05:56;;;;;;;;;;;13.30;41.20;;;;;;6101174;23;19921;-79
2021/12/13 14:08:30;;;;;;;;;;;13.30;41.00;;;;;;6098382;23;20263;-81
2021/12/13 14:10:59;;;;;;;;;;;13.30;41.10;;;;;;6123566;23;19972;-82
2021/12/13 14:13:26;;;;;;;;;;;13.30;41.50;;;;;;6100723;23;20411;-80
2021/12/13 14:15:54;;;;;;;;;;;13.30;41.10;;;;;;6103196;23;19929;-81
2021/12/13 14:18:23;;;;;;;;;;;13.30;41.60;;;;;;6105628;23;19921;-81
2021/12/13 14:20:58;;;;;;;;;;;13.30;41.20;;;;;;6104445;23;19953;-81
2021/12/13 14:23:32;;;;;;;;;;;13.30;41.20;;;;;;6108534;23;19925;-81
2021/12/13 14:26:07;;;;;;;;;;;13.30;41.40;;;;;;6104520;23;19927;-81
2021/12/13 14:28:42;;;;;;;;;;;13.20;40.90;;;;;;6105479;23;19976;-79
2021/12/13 14:31:09;;;;;;;;;;;13.20;41.70;;;;;;6103245;23;19928;-81
2021/12/13 14:33:39;;;;;;;;;;;13.10;41.30;;;;;;6105960;23;19922;-81
2021/12/13 14:36:06;;;;;;;;;;;13.20;41.80;;;;;;6104113;23;19921;-82
2021/12/13 14:38:34;;;;;;;;;;;13.10;41.60;;;;;;6103309;23;19925;-81
2021/12/13 14:41:03;;;;;;;;;;;13.10;41.50;;;;;;6102163;23;19926;-82
2021/12/13 14:43:33;;;;;;;;;;;13.00;41.70;;;;;;6101897;23;19929;-82
2021/12/13 14:46:01;;;;;;;;;;;12.90;41.70;;;;;;6102296;23;20363;-81
2021/12/13 14:48:29;;;;;;;;;;;12.90;41.60;;;;;;6107194;23;19949;-81
2021/12/13 14:50:59;;;;;;;;;;;12.90;42.10;;;;;;6104198;23;20339;-80
2021/12/13 14:53:30;;;;;;;;;;;12.90;41.90;;;;;;6099572;23;19925;-79
2021/12/13 14:56:00;;;;;;;;;;;13.00;41.90;;;;;;6102004;23;20343;-81
2021/12/13 14:58:39;;;;;;;;;;;12.90;41.50;;;;;;6074135;23;19992;-82
2021/12/13 15:01:09;;;;;;;;;;;12.80;41.20;;;;;;6097562;23;19921;-81
2021/12/13 15:03:39;;;;;;;;;;;12.80;41.30;;;;;;6102149;23;19921;-81
2021/12/13 15:06:14;;;;;;;;;;;12.70;41.20;;;;;;6075247;23;19945;-81
2021/12/13 15:08:43;;;;;;;;;;;12.60;41.20;;;;;;6068826;23;19926;-79
2021/12/13 15:11:23;;;;;;;;;;;12.50;41.50;;;;;;6070302;23;19960;-82
2021/12/13 15:13:59;;;;;;;;;;;12.50;43.00;;;;;;6091461;23;19926;-81
2021/12/13 15:16:34;;;;;;;;;;;12.40;43.20;;;;;;6094238;23;20414;-82
2021/12/13 15:19:03;;;;;;;;;;;12.40;43.90;;;;;;6068366;23;19928;-81
2021/12/13 15:21:30;;;;;;;;;;;12.20;43.80;;;;;;6068050;23;19981;-81
2021/12/13 15:23:58;;;;;;;;;;;12.10;44.10;;;;;;6071698;23;19921;-81
2021/12/13 15:26:28;;;;;;;;;;;12.00;44.60;;;;;;6070716;23;19926;-81